Time;durP1;ratioP1;P1;durP2;ratioP2;P2;SDS_P1;SDS_P2;PMS_P1;PMS_P2;Temp;Humidity;BMP_temperature;BMP_pressure;BME280_temperature;BME280_humidity;BME280_pressure;Samples;Min_cycle;Max_cycle;Signal;HPM_P1;HPM_P2
2022/08/17 00:01:39;;;;;;;;;;;28.60;78.70;;;;;;5070250;28;20016;-60
2022/08/17 00:04:05;;;;;;;;;;;28.30;78.80;;;;;;5074441;28;19951;-60
2022/08/17 00:06:30;;;;;;;;;;;28.50;78.70;;;;;;5073473;28;20010;-60
2022/08/17 00:08:57;;;;;;;;;;;28.40;78.60;;;;;;5073034;28;19924;-59
2022/08/17 00:11:27;;;;;;;;;;;28.10;78.70;;;;;;5072525;28;19925;-60
2022/08/17 00:13:53;;;;;;;;;;;28.10;77.30;;;;;;5072845;28;19924;-60
2022/08/17 00:16:21;;;;;;;;;;;28.40;78.90;;;;;;5071832;28;19924;-60
2022/08/17 00:18:47;;;;;;;;;;;28.40;78.90;;;;;;5073846;28;20015;-60
2022/08/17 00:21:13;;;;;;;;;;;28.30;78.60;;;;;;5073273;28;20445;-60
2022/08/17 00:23:39;;;;;;;;;;;28.50;78.60;;;;;;5072779;28;20290;-60
2022/08/17 00:26:05;;;;;;;;;;;28.50;78.80;;;;;;5071818;28;19924;-59
2022/08/17 00:28:31;;;;;;;;;;;28.50;78.40;;;;;;5073012;28;19931;-60
2022/08/17 00:30:57;;;;;;;;;;;28.00;78.20;;;;;;5071793;28;19955;-60
2022/08/17 00:33:24;;;;;;;;;;;28.60;78.70;;;;;;5073302;28;19971;-59
2022/08/17 00:35:50;;;;;;;;;;;28.30;78.60;;;;;;5071909;28;19925;-60
2022/08/17 00:38:15;;;;;;;;;;;28.50;78.50;;;;;;5072624;28;19947;-59
2022/08/17 00:40:42;;;;;;;;;;;28.40;78.50;;;;;;5073229;28;19924;-61
2022/08/17 00:43:09;;;;;;;;;;;28.50;78.70;;;;;;5072736;28;19924;-60
2022/08/17 00:45:34;;;;;;;;;;;28.30;78.60;;;;;;5072641;28;20286;-60
2022/08/17 00:48:00;;;;;;;;;;;28.40;78.30;;;;;;5072892;28;19928;-60
2022/08/17 00:50:26;;;;;;;;;;;28.60;78.50;;;;;;5072661;28;19924;-60
2022/08/17 00:52:52;;;;;;;;;;;28.40;78.30;;;;;;5071659;28;19924;-59
2022/08/17 00:55:18;;;;;;;;;;;28.40;78.60;;;;;;5054431;28;19932;-60
2022/08/17 00:57:45;;;;;;;;;;;28.20;78.20;;;;;;5070198;28;19925;-60
2022/08/17 01:00:13;;;;;;;;;;;28.40;78.70;;;;;;5069547;28;19932;-60
2022/08/17 01:02:41;;;;;;;;;;;28.40;78.10;;;;;;5072238;28;19978;-60
2022/08/17 01:05:07;;;;;;;;;;;28.40;78.60;;;;;;5071485;28;19928;-60
2022/08/17 01:07:33;;;;;;;;;;;28.40;78.70;;;;;;5072488;28;19978;-60
2022/08/17 01:09:59;;;;;;;;;;;28.40;78.50;;;;;;5073629;28;19924;-61
2022/08/17 01:12:24;;;;;;;;;;;28.30;78.20;;;;;;5070938;28;19980;-60
2022/08/17 01:14:50;;;;;;;;;;;28.30;78.40;;;;;;5075247;28;20069;-59
2022/08/17 01:17:16;;;;;;;;;;;28.50;78.40;;;;;;5073978;28;19972;-60
2022/08/17 01:19:41;;;;;;;;;;;28.30;78.30;;;;;;5076360;28;20415;-60
2022/08/17 01:22:10;;;;;;;;;;;28.40;78.30;;;;;;5074904;28;20282;-60
2022/08/17 01:24:37;;;;;;;;;;;28.40;77.20;;;;;;5076622;28;19928;-61
2022/08/17 01:27:03;;;;;;;;;;;28.50;78.70;;;;;;5075327;28;19932;-59
2022/08/17 01:29:29;;;;;;;;;;;28.40;78.50;;;;;;5070098;28;19925;-61
2022/08/17 01:31:56;;;;;;;;;;;28.40;78.40;;;;;;5076075;28;19972;-60
2022/08/17 01:34:23;;;;;;;;;;;28.70;78.80;;;;;;5074573;28;20405;-60
2022/08/17 01:36:49;;;;;;;;;;;28.60;78.50;;;;;;5075473;28;19927;-60
2022/08/17 01:39:26;;;;;;;;;;;28.10;78.00;;;;;;5075788;28;19924;-60
2022/08/17 01:41:54;;;;;;;;;;;28.30;77.10;;;;;;5075999;28;19931;-59
2022/08/17 01:44:20;;;;;;;;;;;28.50;78.60;;;;;;5064818;28;19974;-60
2022/08/17 01:46:45;;;;;;;;;;;28.40;78.20;;;;;;5074787;28;19924;-61
2022/08/17 01:49:11;;;;;;;;;;;28.40;78.30;;;;;;5074373;28;20333;-60
2022/08/17 01:51:37;;;;;;;;;;;28.00;78.00;;;;;;5076002;28;19924;-59
2022/08/17 01:54:06;;;;;;;;;;;28.50;78.30;;;;;;5076736;28;19924;-59
2022/08/17 01:56:33;;;;;;;;;;;28.10;78.20;;;;;;5074731;28;19924;-59
2022/08/17 01:58:58;;;;;;;;;;;28.50;78.40;;;;;;5074674;28;19931;-60
2022/08/17 02:01:26;;;;;;;;;;;28.30;78.20;;;;;;5074156;28;20392;-60
2022/08/17 02:03:52;;;;;;;;;;;28.20;78.30;;;;;;5074674;28;19929;-60
2022/08/17 02:06:17;;;;;;;;;;;28.00;78.10;;;;;;5073317;28;19924;-60
2022/08/17 02:08:43;;;;;;;;;;;28.10;78.60;;;;;;5071923;28;19932;-60
2022/08/17 02:11:10;;;;;;;;;;;28.10;77.90;;;;;;5074086;28;19969;-62
2022/08/17 02:13:36;;;;;;;;;;;28.00;78.20;;;;;;5075625;28;19925;-60
2022/08/17 02:16:02;;;;;;;;;;;28.20;78.20;;;;;;5074806;28;20354;-60
2022/08/17 02:18:29;;;;;;;;;;;28.10;77.70;;;;;;5075368;28;19925;-60
2022/08/17 02:20:54;;;;;;;;;;;28.00;78.00;;;;;;5074266;28;20352;-60
2022/08/17 02:23:20;;;;;;;;;;;28.20;77.90;;;;;;5074857;28;19928;-60
2022/08/17 02:25:49;;;;;;;;;;;28.10;78.00;;;;;;5072780;28;19979;-60
2022/08/17 02:28:15;;;;;;;;;;;28.00;77.10;;;;;;5073743;28;19938;-59
2022/08/17 02:30:41;;;;;;;;;;;28.00;77.90;;;;;;5075283;28;19924;-60
2022/08/17 02:33:07;;;;;;;;;;;28.40;77.90;;;;;;5074985;28;20422;-60
2022/08/17 02:35:34;;;;;;;;;;;28.00;78.00;;;;;;5073324;28;20295;-60
2022/08/17 02:38:00;;;;;;;;;;;28.00;78.20;;;;;;5074619;28;19978;-60
2022/08/17 02:40:26;;;;;;;;;;;28.30;78.40;;;;;;5057671;28;19925;-60
2022/08/17 02:42:51;;;;;;;;;;;28.90;78.80;;;;;;5074684;28;19928;-60
2022/08/17 02:45:18;;;;;;;;;;;28.00;78.10;;;;;;5074364;28;19976;-60
2022/08/17 02:47:44;;;;;;;;;;;28.30;78.40;;;;;;5056946;28;19925;-60
2022/08/17 02:50:10;;;;;;;;;;;27.90;78.10;;;;;;5074483;28;19973;-60
2022/08/17 02:52:36;;;;;;;;;;;28.10;78.40;;;;;;5073755;28;19978;-60
2022/08/17 02:55:03;;;;;;;;;;;28.20;78.50;;;;;;5074518;28;20021;-60
2022/08/17 02:57:29;;;;;;;;;;;28.00;78.30;;;;;;5053344;28;19925;-60
2022/08/17 02:59:55;;;;;;;;;;;28.10;78.90;;;;;;5064609;28;20305;-60
2022/08/17 03:02:20;;;;;;;;;;;27.90;78.10;;;;;;5073588;28;20362;-59
2022/08/17 03:04:46;;;;;;;;;;;28.20;78.40;;;;;;5055266;28;19980;-60
2022/08/17 03:07:11;;;;;;;;;;;28.10;78.20;;;;;;5074537;28;19925;-60
2022/08/17 03:09:37;;;;;;;;;;;28.00;78.30;;;;;;5072758;28;20405;-60
2022/08/17 03:12:06;;;;;;;;;;;27.80;78.00;;;;;;5074477;28;19924;-59
2022/08/17 03:14:31;;;;;;;;;;;28.30;78.60;;;;;;5072914;28;19978;-60
2022/08/17 03:16:58;;;;;;;;;;;28.10;78.10;;;;;;5073842;28;19928;-60
2022/08/17 03:19:23;;;;;;;;;;;28.50;78.80;;;;;;5074961;28;19951;-59
2022/08/17 03:21:49;;;;;;;;;;;27.90;78.00;;;;;;5074124;28;20378;-59
2022/08/17 03:24:14;;;;;;;;;;;28.20;78.30;;;;;;5073442;28;20055;-61
2022/08/17 03:26:40;;;;;;;;;;;28.00;78.20;;;;;;5073688;28;20404;-61
2022/08/17 03:29:06;;;;;;;;;;;27.90;78.20;;;;;;5073859;28;19939;-60
2022/08/17 03:31:31;;;;;;;;;;;27.80;78.10;;;;;;5074217;28;20379;-60
2022/08/17 03:33:57;;;;;;;;;;;28.20;78.40;;;;;;5073465;28;20063;-60
2022/08/17 03:36:22;;;;;;;;;;;27.70;77.90;;;;;;5071465;28;20007;-60
2022/08/17 03:38:48;;;;;;;;;;;27.90;78.20;;;;;;5072684;28;19928;-60
2022/08/17 03:41:14;;;;;;;;;;;28.10;78.20;;;;;;5073606;28;19966;-61
2022/08/17 03:43:39;;;;;;;;;;;28.00;78.30;;;;;;5073466;28;20531;-59
2022/08/17 03:57:02;;;;;;;;;;;28.10;77.50;;;;;;5072652;28;20011;-60
2022/08/17 03:59:28;;;;;;;;;;;28.30;78.90;;;;;;5072193;28;20370;-60
2022/08/17 04:01:54;;;;;;;;;;;27.90;78.40;;;;;;5054396;28;19925;-60
2022/08/17 04:04:20;;;;;;;;;;;28.00;78.70;;;;;;5070337;28;19981;-60
2022/08/17 04:06:45;;;;;;;;;;;28.20;78.50;;;;;;5072137;28;19924;-60
2022/08/17 04:09:11;;;;;;;;;;;28.10;78.70;;;;;;5055147;28;20298;-59
2022/08/17 04:11:37;;;;;;;;;;;27.90;78.40;;;;;;5072830;28;19964;-60
2022/08/17 04:14:02;;;;;;;;;;;27.80;78.60;;;;;;5074149;28;19924;-59
2022/08/17 04:16:28;;;;;;;;;;;27.90;78.50;;;;;;5072412;28;20374;-60
2022/08/17 04:18:54;;;;;;;;;;;28.00;78.80;;;;;;5072868;28;19925;-60
2022/08/17 04:21:20;;;;;;;;;;;27.90;78.60;;;;;;5073533;28;19924;-60
2022/08/17 04:23:45;;;;;;;;;;;28.00;78.90;;;;;;5074435;28;19924;-59
2022/08/17 04:26:11;;;;;;;;;;;27.80;78.60;;;;;;5073054;28;19924;-60
2022/08/17 04:28:37;;;;;;;;;;;27.70;78.80;;;;;;5070266;28;19930;-60
2022/08/17 04:31:03;;;;;;;;;;;27.80;78.80;;;;;;5072933;28;19925;-59
2022/08/17 04:33:29;;;;;;;;;;;28.00;79.00;;;;;;5071834;28;19932;-60
2022/08/17 04:35:57;;;;;;;;;;;27.90;79.00;;;;;;5071946;28;19924;-60
2022/08/17 04:38:23;;;;;;;;;;;27.80;79.00;;;;;;5069758;28;19978;-60
2022/08/17 04:43:33;;;;;;;;;;;27.80;78.50;;;;;;5071797;28;19925;-60
2022/08/17 04:46:00;;;;;;;;;;;28.00;78.90;;;;;;5072882;28;20018;-60
2022/08/17 04:48:35;;;;;;;;;;;27.90;79.10;;;;;;5057869;28;19970;-59
2022/08/17 04:51:01;;;;;;;;;;;27.90;78.90;;;;;;5054628;28;20382;-60
2022/08/17 04:53:27;;;;;;;;;;;28.00;78.80;;;;;;5077097;28;19925;-60
2022/08/17 04:55:52;;;;;;;;;;;28.00;78.80;;;;;;5077431;28;19920;-60
2022/08/17 04:58:18;;;;;;;;;;;27.90;78.60;;;;;;5075866;28;19954;-60
2022/08/17 05:00:44;;;;;;;;;;;27.90;78.80;;;;;;5076268;28;20042;-59
2022/08/17 05:03:09;;;;;;;;;;;27.80;78.80;;;;;;5076732;28;20399;-60
2022/08/17 05:05:36;;;;;;;;;;;28.00;78.80;;;;;;5076854;28;19925;-60
2022/08/17 05:08:02;;;;;;;;;;;27.90;79.10;;;;;;5076802;28;19925;-60
2022/08/17 05:10:28;;;;;;;;;;;28.00;79.00;;;;;;5074110;28;19928;-60
2022/08/17 05:13:02;;;;;;;;;;;28.00;79.10;;;;;;5076744;28;19924;-60
2022/08/17 05:15:28;;;;;;;;;;;27.80;77.60;;;;;;5059220;28;19928;-60
2022/08/17 05:17:54;;;;;;;;;;;28.00;79.00;;;;;;5074368;28;20047;-60
2022/08/17 05:20:19;;;;;;;;;;;27.90;78.60;;;;;;5076835;28;19935;-60
2022/08/17 05:22:48;;;;;;;;;;;28.10;78.60;;;;;;5075389;28;19955;-59
2022/08/17 05:25:13;;;;;;;;;;;28.00;79.90;;;;;;5076387;28;19993;-59
2022/08/17 05:27:39;;;;;;;;;;;27.80;78.90;;;;;;5075481;28;19931;-60
2022/08/17 05:30:05;;;;;;;;;;;28.10;79.40;;;;;;5076401;28;20396;-60
2022/08/17 05:32:30;;;;;;;;;;;28.10;78.90;;;;;;5074417;28;19927;-60
2022/08/17 05:34:58;;;;;;;;;;;27.60;79.10;;;;;;5075810;28;19925;-60
2022/08/17 05:37:24;;;;;;;;;;;28.00;79.00;;;;;;5075675;28;19979;-60
2022/08/17 05:39:50;;;;;;;;;;;27.80;79.10;;;;;;5074812;28;20385;-60
2022/08/17 05:42:18;;;;;;;;;;;28.10;78.90;;;;;;5074457;28;20011;-59
2022/08/17 05:44:44;;;;;;;;;;;27.90;77.90;;;;;;5076851;28;19931;-60
2022/08/17 05:47:10;;;;;;;;;;;28.00;79.40;;;;;;5075289;28;20015;-60
2022/08/17 05:49:35;;;;;;;;;;;27.90;79.30;;;;;;5076559;28;19925;-61
2022/08/17 05:52:22;;;;;;;;;;;27.90;79.20;;;;;;5075534;28;19978;-60
2022/08/17 05:54:51;;;;;;;;;;;28.00;78.30;;;;;;5074732;28;19925;-59
2022/08/17 05:57:36;;;;;;;;;;;27.80;78.10;;;;;;5074537;28;19931;-60
2022/08/17 06:00:09;;;;;;;;;;;27.80;78.10;;;;;;5074859;28;19928;-60
2022/08/17 06:02:40;;;;;;;;;;;28.00;78.20;;;;;;5073709;28;19925;-60
2022/08/17 06:05:05;;;;;;;;;;;27.90;79.60;;;;;;5073742;28;19970;-59
2022/08/17 06:07:44;;;;;;;;;;;27.90;79.30;;;;;;5075315;28;20324;-60
2022/08/17 06:10:21;;;;;;;;;;;28.00;78.30;;;;;;5069384;28;20436;-61
2022/08/17 06:12:47;;;;;;;;;;;27.80;78.20;;;;;;5073643;28;19925;-60
2022/08/17 06:15:22;;;;;;;;;;;27.90;79.50;;;;;;5074655;28;19947;-60
2022/08/17 06:17:48;;;;;;;;;;;28.00;78.40;;;;;;5073623;28;20422;-59
2022/08/17 06:20:14;;;;;;;;;;;27.80;79.40;;;;;;5067647;28;20028;-59
2022/08/17 06:22:49;;;;;;;;;;;27.80;79.40;;;;;;5065355;28;19974;-59
2022/08/17 06:25:35;;;;;;;;;;;27.90;78.40;;;;;;5070427;28;19924;-68
2022/08/17 06:28:04;;;;;;;;;;;27.80;79.80;;;;;;5073580;28;19929;-60
2022/08/17 06:30:33;;;;;;;;;;;27.90;79.90;;;;;;5072878;28;19925;-60
2022/08/17 06:33:04;;;;;;;;;;;27.90;79.70;;;;;;5073856;28;19932;-60
2022/08/17 06:35:36;;;;;;;;;;;28.00;79.80;;;;;;5074079;28;19970;-60
2022/08/17 06:38:07;;;;;;;;;;;27.60;78.60;;;;;;5057282;28;19993;-71
2022/08/17 06:40:36;;;;;;;;;;;27.80;79.50;;;;;;5072870;28;19920;-60
2022/08/17 06:43:19;;;;;;;;;;;28.00;79.60;;;;;;5055980;28;20382;-67
2022/08/17 06:45:49;;;;;;;;;;;29.90;79.50;;;;;;5072525;28;19924;-63
2022/08/17 06:48:26;;;;;;;;;;;27.70;79.20;;;;;;5056607;28;19924;-63
2022/08/17 06:50:53;;;;;;;;;;;28.00;78.10;;;;;;5053681;28;19925;-69
2022/08/17 06:53:23;;;;;;;;;;;28.10;79.60;;;;;;5065472;28;19924;-60
2022/08/17 06:56:01;;;;;;;;;;;27.90;77.90;;;;;;5068348;28;19925;-65
2022/08/17 06:58:30;;;;;;;;;;;27.80;77.90;;;;;;5070365;28;19928;-68
2022/08/17 07:00:59;;;;;;;;;;;27.90;79.20;;;;;;5068077;28;19928;-61
2022/08/17 07:03:46;;;;;;;;;;;28.10;79.40;;;;;;5077432;28;19929;-61
2022/08/17 07:06:12;;;;;;;;;;;27.80;78.90;;;;;;5044809;28;20351;-63
2022/08/17 07:08:40;;;;;;;;;;;28.00;79.50;;;;;;5050943;28;19987;-63
2022/08/17 07:11:13;;;;;;;;;;;28.00;78.40;;;;;;5034309;28;20402;-62
2022/08/17 07:13:45;;;;;;;;;;;28.10;78.60;;;;;;5047655;28;19936;-61
2022/08/17 07:16:13;;;;;;;;;;;27.60;78.30;;;;;;5023061;28;20022;-66
2022/08/17 07:18:39;;;;;;;;;;;27.80;80.00;;;;;;5033167;28;19931;-62
2022/08/17 07:21:28;;;;;;;;;;;27.70;79.20;;;;;;5048305;28;19929;-60
2022/08/17 07:24:11;;;;;;;;;;;27.60;78.50;;;;;;4990747;28;19940;-62
2022/08/17 07:26:37;;;;;;;;;;;27.70;78.70;;;;;;4990155;28;19926;-63
2022/08/17 07:29:03;;;;;;;;;;;27.70;79.90;;;;;;4992409;28;20388;-61
2022/08/17 07:31:29;;;;;;;;;;;27.60;79.60;;;;;;4988674;28;19934;-63
2022/08/17 07:34:06;;;;;;;;;;;27.70;79.70;;;;;;4989816;28;19926;-62
2022/08/17 07:36:33;;;;;;;;;;;27.70;78.60;;;;;;4988525;28;20093;-62
2022/08/17 07:38:59;;;;;;;;;;;27.80;80.00;;;;;;4985604;28;20295;-66
2022/08/17 07:41:25;;;;;;;;;;;27.00;79.50;;;;;;4992050;28;19926;-60
2022/08/17 07:43:51;;;;;;;;;;;27.90;80.30;;;;;;5004490;28;20398;-61
2022/08/17 07:49:13;;;;;;;;;;;28.00;78.80;;;;;;5000404;28;19926;-66
2022/08/17 07:51:39;;;;;;;;;;;27.80;78.80;;;;;;5006606;28;19933;-65
2022/08/17 07:54:14;;;;;;;;;;;27.80;80.20;;;;;;4991408;28;19937;-64
2022/08/17 07:56:52;;;;;;;;;;;27.70;79.40;;;;;;5008852;28;20439;-60
2022/08/17 07:59:19;;;;;;;;;;;27.90;79.90;;;;;;4994080;28;19933;-60
2022/08/17 08:01:46;;;;;;;;;;;27.80;81.20;;;;;;5061244;28;19924;-59
2022/08/17 08:04:38;;;;;;;;;;;27.90;81.50;;;;;;5073919;28;19928;-66
2022/08/17 08:07:05;;;;;;;;;;;28.10;80.50;;;;;;5050490;28;19967;-62
2022/08/17 08:09:33;;;;;;;;;;;27.80;81.50;;;;;;5066358;28;19931;-65
2022/08/17 08:12:00;;;;;;;;;;;27.90;82.10;;;;;;5071420;28;20073;-61
2022/08/17 08:14:28;;;;;;;;;;;28.10;82.60;;;;;;5073605;28;19931;-62
2022/08/17 08:16:58;;;;;;;;;;;28.10;82.20;;;;;;5085002;28;20350;-61
2022/08/17 08:19:24;;;;;;;;;;;27.80;80.60;;;;;;5083400;28;19924;-62
2022/08/17 08:22:10;;;;;;;;;;;27.70;81.80;;;;;;5093398;28;20385;-64
2022/08/17 08:24:42;;;;;;;;;;;27.90;82.00;;;;;;5088847;28;19935;-62
2022/08/17 08:27:11;;;;;;;;;;;28.10;80.70;;;;;;5075777;28;19924;-61
2022/08/17 08:30:13;;;;;;;;;;;27.90;80.60;;;;;;5068223;28;19924;-61
2022/08/17 08:32:57;;;;;;;;;;;27.70;80.40;;;;;;5030227;28;19940;-62
2022/08/17 08:35:25;;;;;;;;;;;27.80;80.50;;;;;;5030380;28;19925;-67
2022/08/17 08:38:09;;;;;;;;;;;27.70;80.70;;;;;;5026685;28;19925;-59
2022/08/17 08:40:38;;;;;;;;;;;28.00;80.50;;;;;;5023563;28;20298;-61
2022/08/17 08:43:03;;;;;;;;;;;27.80;81.80;;;;;;5023096;28;20482;-62
2022/08/17 08:45:38;;;;;;;;;;;27.70;81.40;;;;;;5029025;28;19929;-62
2022/08/17 08:48:16;;;;;;;;;;;28.10;80.80;;;;;;5017648;28;19932;-63
2022/08/17 08:50:46;;;;;;;;;;;27.70;80.60;;;;;;5009726;28;19949;-61
2022/08/17 08:53:14;;;;;;;;;;;27.90;80.80;;;;;;5029292;28;19925;-69
2022/08/17 08:55:44;;;;;;;;;;;28.00;82.20;;;;;;5026708;28;19929;-60
2022/08/17 08:58:19;;;;;;;;;;;27.80;82.20;;;;;;5016949;28;19933;-62
2022/08/17 09:00:48;;;;;;;;;;;27.70;81.00;;;;;;5012915;28;19952;-69
2022/08/17 09:03:32;;;;;;;;;;;27.90;82.20;;;;;;5007407;28;19994;-73
2022/08/17 09:05:59;;;;;;;;;;;27.90;81.30;;;;;;5039870;28;20285;-64
2022/08/17 09:08:36;;;;;;;;;;;28.00;82.20;;;;;;5060026;28;19924;-76
2022/08/17 09:11:04;;;;;;;;;;;28.20;81.40;;;;;;5070082;28;19986;-76
2022/08/17 09:13:48;;;;;;;;;;;28.30;82.80;;;;;;5054546;28;19964;-61
2022/08/17 09:16:19;;;;;;;;;;;28.00;81.00;;;;;;5069903;28;19931;-67
2022/08/17 09:18:52;;;;;;;;;;;28.40;80.90;;;;;;5075447;28;20332;-62
2022/08/17 09:21:21;;;;;;;;;;;28.30;80.90;;;;;;5061566;28;19933;-70
2022/08/17 09:23:58;;;;;;;;;;;28.10;82.10;;;;;;5071128;28;19924;-68
2022/08/17 09:26:35;;;;;;;;;;;28.00;80.70;;;;;;5081196;28;20426;-75
2022/08/17 09:29:02;;;;;;;;;;;28.30;80.90;;;;;;5076640;28;19924;-76
2022/08/17 09:31:34;;;;;;;;;;;28.00;81.50;;;;;;5091299;28;19986;-67
2022/08/17 09:34:10;;;;;;;;;;;28.10;82.20;;;;;;5064909;28;20393;-73
2022/08/17 09:36:59;;;;;;;;;;;28.40;81.00;;;;;;5073721;28;19925;-64
2022/08/17 09:39:27;;;;;;;;;;;28.20;81.50;;;;;;5010980;28;19932;-61
2022/08/17 09:41:59;;;;;;;;;;;28.30;82.20;;;;;;4993528;28;20025;-76
2022/08/17 09:44:44;;;;;;;;;;;28.20;80.70;;;;;;5014039;28;19929;-62
2022/08/17 09:47:29;;;;;;;;;;;28.10;80.50;;;;;;5004017;28;19968;-63
2022/08/17 09:50:13;;;;;;;;;;;28.40;80.70;;;;;;5005918;28;20024;-61
2022/08/17 09:52:39;;;;;;;;;;;28.00;80.30;;;;;;4994162;28;19941;-76
2022/08/17 09:55:04;;;;;;;;;;;28.20;81.40;;;;;;4987658;28;20012;-63
2022/08/17 09:57:30;;;;;;;;;;;28.30;81.50;;;;;;4997746;28;19941;-67
2022/08/17 10:00:07;;;;;;;;;;;28.20;81.40;;;;;;5003419;28;20032;-67
2022/08/17 10:02:41;;;;;;;;;;;28.10;80.50;;;;;;4995692;28;19941;-82
2022/08/17 10:05:17;;;;;;;;;;;28.30;80.90;;;;;;5004126;28;19932;-79
2022/08/17 10:07:54;;;;;;;;;;;28.10;80.80;;;;;;5004567;28;19972;-62
2022/08/17 10:10:28;;;;;;;;;;;28.50;81.00;;;;;;4990803;28;19973;-68
2022/08/17 10:13:05;;;;;;;;;;;28.20;81.00;;;;;;5013349;28;20016;-64
2022/08/17 10:15:36;;;;;;;;;;;28.30;81.00;;;;;;5018219;28;20441;-66
2022/08/17 10:18:06;;;;;;;;;;;28.30;80.90;;;;;;5061652;28;19928;-65
2022/08/17 10:26:11;;;;;;;;;;;28.20;82.20;;;;;;5091559;28;20017;-68
2022/08/17 10:26:23;;;;;;;;;;;28.60;82.00;;;;;;5058342;28;19929;-64
2022/08/17 10:28:49;;;;;;;;;;;28.40;82.20;;;;;;5077083;28;19935;-62
2022/08/17 10:31:41;;;;;;;;;;;28.50;81.70;;;;;;5095587;28;19924;-61
2022/08/17 10:34:30;;;;;;;;;;;28.40;80.60;;;;;;5069246;28;19932;-65
2022/08/17 10:36:59;;;;;;;;;;;28.40;80.60;;;;;;5005334;28;20276;-60
2022/08/17 10:39:43;;;;;;;;;;;28.50;82.10;;;;;;4988749;28;19992;-61
2022/08/17 10:42:19;;;;;;;;;;;28.50;80.80;;;;;;5008550;28;19984;-67
2022/08/17 10:44:50;;;;;;;;;;;28.50;80.70;;;;;;4993545;28;19926;-60
2022/08/17 10:47:16;;;;;;;;;;;28.30;80.90;;;;;;4985543;28;19929;-63
2022/08/17 10:49:52;;;;;;;;;;;28.60;82.60;;;;;;5008449;28;19925;-72
2022/08/17 10:52:18;;;;;;;;;;;28.70;81.20;;;;;;5005136;28;19960;-60
2022/08/17 10:54:46;;;;;;;;;;;28.30;81.80;;;;;;5010713;28;19933;-64
2022/08/17 10:57:33;;;;;;;;;;;28.40;80.60;;;;;;5013058;28;20020;-67
2022/08/17 10:59:59;;;;;;;;;;;28.40;81.10;;;;;;5009197;28;19936;-65
2022/08/17 11:02:26;;;;;;;;;;;28.40;82.70;;;;;;4998320;28;20775;-64
2022/08/17 11:05:05;;;;;;;;;;;28.60;82.50;;;;;;5011418;28;19983;-69
2022/08/17 11:07:39;;;;;;;;;;;28.40;81.00;;;;;;5012399;28;20008;-65
2022/08/17 11:10:17;;;;;;;;;;;28.40;81.30;;;;;;5007332;28;19951;-80
2022/08/17 11:12:42;;;;;;;;;;;28.50;81.20;;;;;;5009073;28;19932;-70
2022/08/17 11:15:27;;;;;;;;;;;28.70;82.40;;;;;;5055591;28;19925;-61
2022/08/17 11:18:03;;;;;;;;;;;28.50;81.00;;;;;;5087245;28;20433;-62
2022/08/17 11:20:40;;;;;;;;;;;28.50;81.20;;;;;;5064833;28;19928;-63
2022/08/17 11:23:08;;;;;;;;;;;28.50;81.20;;;;;;5052493;28;20330;-61
2022/08/17 11:25:46;;;;;;;;;;;28.20;80.90;;;;;;5054314;28;19935;-63
2022/08/17 11:28:17;;;;;;;;;;;28.40;81.10;;;;;;5060510;28;20417;-72
2022/08/17 11:30:49;;;;;;;;;;;28.50;81.20;;;;;;5052113;28;19974;-68
2022/08/17 11:33:27;;;;;;;;;;;28.40;81.10;;;;;;5052113;28;19977;-62
2022/08/17 11:35:59;;;;;;;;;;;28.40;81.10;;;;;;5052018;28;19931;-76
2022/08/17 11:38:30;;;;;;;;;;;28.40;81.10;;;;;;5051285;28;19925;-61
2022/08/17 11:41:31;;;;;;;;;;;28.50;82.60;;;;;;5053997;28;19924;-60
2022/08/17 11:44:00;;;;;;;;;;;28.60;81.30;;;;;;5050124;28;19954;-80
2022/08/17 11:52:03;;;;;;;;;;;28.60;82.80;;;;;;5050538;28;19932;-63
2022/08/17 11:54:29;;;;;;;;;;;28.50;82.60;;;;;;5050204;28;19928;-61
2022/08/17 11:56:57;;;;;;;;;;;28.40;81.90;;;;;;5050266;28;20375;-71
2022/08/17 11:59:32;;;;;;;;;;;28.70;82.90;;;;;;5051511;28;20337;-61
2022/08/17 12:01:59;;;;;;;;;;;28.60;81.40;;;;;;5051270;28;19929;-61
2022/08/17 12:04:26;;;;;;;;;;;28.70;82.80;;;;;;5033627;28;19932;-66
2022/08/17 12:06:55;;;;;;;;;;;28.70;82.70;;;;;;5050239;28;20448;-68
2022/08/17 12:09:23;;;;;;;;;;;28.70;82.70;;;;;;5051642;28;19925;-61
2022/08/17 12:11:51;;;;;;;;;;;28.70;82.50;;;;;;5051322;28;20389;-61
2022/08/17 12:14:21;;;;;;;;;;;28.60;82.70;;;;;;5050267;28;19924;-69
2022/08/17 12:16:57;;;;;;;;;;;28.50;82.60;;;;;;5049670;28;20011;-69
2022/08/17 12:19:26;;;;;;;;;;;28.60;81.30;;;;;;5052934;28;19925;-63
2022/08/17 12:21:56;;;;;;;;;;;28.70;82.60;;;;;;5053596;28;19928;-73
2022/08/17 12:24:41;;;;;;;;;;;28.20;83.40;;;;;;5068428;28;19924;-60
2022/08/17 12:27:08;;;;;;;;;;;28.50;81.60;;;;;;5051912;28;20363;-60
2022/08/17 12:29:34;;;;;;;;;;;28.60;82.70;;;;;;5069138;28;20333;-67
2022/08/17 12:32:00;;;;;;;;;;;28.40;82.50;;;;;;5053151;28;19928;-62
2022/08/17 12:34:28;;;;;;;;;;;28.50;82.80;;;;;;5053597;28;19929;-64
2022/08/17 12:36:58;;;;;;;;;;;28.20;82.70;;;;;;5051518;28;19931;-62
2022/08/17 12:39:25;;;;;;;;;;;28.40;81.50;;;;;;5050116;28;19925;-61
2022/08/17 12:41:52;;;;;;;;;;;28.50;82.70;;;;;;5068186;28;19931;-62
2022/08/17 12:44:19;;;;;;;;;;;28.60;82.80;;;;;;5053509;28;19925;-60
2022/08/17 12:46:44;;;;;;;;;;;28.70;83.10;;;;;;5051895;28;19924;-65
2022/08/17 12:49:34;;;;;;;;;;;28.50;82.80;;;;;;5052325;28;19931;-60
2022/08/17 12:52:07;;;;;;;;;;;28.50;81.40;;;;;;5011985;28;19936;-60
2022/08/17 12:54:36;;;;;;;;;;;28.50;81.50;;;;;;5012048;28;20362;-60
2022/08/17 12:57:05;;;;;;;;;;;28.50;83.10;;;;;;4979273;28;19932;-60
2022/08/17 12:59:31;;;;;;;;;;;28.50;81.70;;;;;;5008623;28;19928;-60
2022/08/17 13:01:58;;;;;;;;;;;28.50;83.00;;;;;;4994369;28;19947;-61
2022/08/17 13:04:24;;;;;;;;;;;28.50;82.00;;;;;;5010854;28;19932;-61
2022/08/17 13:06:50;;;;;;;;;;;28.20;82.90;;;;;;5004221;28;20331;-64
2022/08/17 13:09:20;;;;;;;;;;;28.10;83.00;;;;;;5011699;28;19925;-62
2022/08/17 13:11:47;;;;;;;;;;;28.30;81.90;;;;;;5013924;28;19933;-61
2022/08/17 13:14:14;;;;;;;;;;;28.30;83.40;;;;;;5014497;28;19929;-61
2022/08/17 13:16:39;;;;;;;;;;;28.10;82.70;;;;;;5014479;28;19936;-66
2022/08/17 13:19:13;;;;;;;;;;;28.10;83.20;;;;;;4999082;28;19929;-62
2022/08/17 13:21:46;;;;;;;;;;;28.50;82.50;;;;;;4998002;28;19932;-62
2022/08/17 13:24:18;;;;;;;;;;;28.70;82.60;;;;;;5015298;28;19933;-62
2022/08/17 13:26:51;;;;;;;;;;;28.30;83.60;;;;;;4978194;28;19925;-61
2022/08/17 13:29:26;;;;;;;;;;;28.50;82.30;;;;;;5047658;28;19924;-61
2022/08/17 13:31:57;;;;;;;;;;;28.00;81.90;;;;;;5057431;28;19925;-60
2022/08/17 13:34:22;;;;;;;;;;;28.40;83.60;;;;;;5059390;28;20390;-61
2022/08/17 13:36:48;;;;;;;;;;;28.30;83.10;;;;;;5054413;28;19925;-61
2022/08/17 13:39:17;;;;;;;;;;;28.80;83.70;;;;;;5056726;28;19986;-61
2022/08/17 13:41:43;;;;;;;;;;;28.50;82.10;;;;;;5055043;28;19924;-68
2022/08/17 13:44:48;;;;;;;;;;;28.40;83.10;;;;;;5056970;28;19935;-63
2022/08/17 13:47:17;;;;;;;;;;;28.40;82.10;;;;;;5034687;28;19925;-62
2022/08/17 13:49:43;;;;;;;;;;;28.50;82.10;;;;;;5018041;28;20336;-63
2022/08/17 13:52:27;;;;;;;;;;;28.30;83.00;;;;;;5033348;28;20019;-61
2022/08/17 13:54:59;;;;;;;;;;;28.70;82.00;;;;;;5033731;28;20011;-61
2022/08/17 13:57:25;;;;;;;;;;;28.50;83.20;;;;;;5033355;28;19925;-61
2022/08/17 13:59:51;;;;;;;;;;;28.40;83.10;;;;;;5034461;28;19925;-60
2022/08/17 14:02:17;;;;;;;;;;;28.60;83.40;;;;;;5032399;28;19979;-60
2022/08/17 14:04:43;;;;;;;;;;;28.40;83.30;;;;;;5033636;28;19980;-64
2022/08/17 14:07:11;;;;;;;;;;;28.40;82.90;;;;;;5034193;28;19925;-61
2022/08/17 14:09:47;;;;;;;;;;;28.50;82.20;;;;;;5034285;28;19995;-61
2022/08/17 14:12:14;;;;;;;;;;;28.40;81.80;;;;;;5010593;28;19950;-69
2022/08/17 14:14:41;;;;;;;;;;;28.50;83.40;;;;;;5014370;28;19929;-61
2022/08/17 14:17:07;;;;;;;;;;;28.40;83.30;;;;;;5033312;28;20011;-61
2022/08/17 14:19:33;;;;;;;;;;;28.30;83.10;;;;;;5036181;28;19987;-60
2022/08/17 14:21:59;;;;;;;;;;;28.60;82.90;;;;;;5036065;28;19936;-60
2022/08/17 14:24:26;;;;;;;;;;;28.30;83.20;;;;;;5054426;28;19925;-60
2022/08/17 14:26:51;;;;;;;;;;;28.60;83.50;;;;;;5053303;28;19925;-60
2022/08/17 14:29:18;;;;;;;;;;;28.60;83.30;;;;;;5055123;28;19978;-60
2022/08/17 14:31:45;;;;;;;;;;;28.50;83.50;;;;;;5051728;28;19931;-69
2022/08/17 14:34:10;;;;;;;;;;;28.60;83.50;;;;;;5052910;28;19932;-62
2022/08/17 14:36:37;;;;;;;;;;;28.30;82.70;;;;;;5055729;28;19924;-69
2022/08/17 14:39:03;;;;;;;;;;;28.30;83.60;;;;;;5056435;28;19968;-68
2022/08/17 14:41:28;;;;;;;;;;;28.40;83.50;;;;;;5055005;28;20029;-64
2022/08/17 14:43:54;;;;;;;;;;;28.10;83.20;;;;;;5054687;28;19928;-68
2022/08/17 14:46:20;;;;;;;;;;;28.40;83.60;;;;;;5052882;28;19971;-60
2022/08/17 14:48:45;;;;;;;;;;;28.30;83.50;;;;;;5054547;28;19925;-70
2022/08/17 14:51:11;;;;;;;;;;;27.90;83.50;;;;;;5054305;28;19966;-60
2022/08/17 14:53:37;;;;;;;;;;;28.20;83.60;;;;;;5071191;28;19924;-60
2022/08/17 14:56:03;;;;;;;;;;;28.20;83.60;;;;;;5054765;28;19931;-65